»·PEaware :: ASH5948 KPHX-KSBP

ASH5948 :: KPHX-KSBP

FLIGHT INFORMATION

Flight Status: Arrived
Operator:
Mesa Airlines
More flights by this operator :: More flights under this callsign
Pilot: Chandler S. (807)
Aircraft: CANADAIR CL-600 CRJ-200
(CRJ2)
More flights by this aircraft type
Origin: KPHX Phoenix Sky Harbor Intl
United States
Destination: KSBP San Luis Co Regl
United States
More flights between these airports :: More routes between these airports
Route: +IZZZO6 HRRBR CURIV DECAS PMD FIM RZS MQO
File this flight plan on PilotEdge
Remarks:
Altitude:
(Current/Filed)
32,000ft
Speed:
(Current/Filed)
300kts
Departed: 21-Apr-18 12:29 PM
Arrived: 21-Apr-18 01:37 PM
Distance/Time
Traveled:
441nm/1:08
Distance/Time
To Go:
Arrived

Flight Plot

Page will automatically refresh every two minutes.

Flight plan parsing failed; only flown route is shown


Map Options




Map Legend


Flown Route
Filed Route
Departure Airport
Arrival Airport
Navaid (VOR, NDB)
Fix

Horizontal Profiles

Position Reports

Time Latitude Longitude Heading Altitude Ground
Speed
21-Apr-18 12:07 33.436341 -111.995036 129 1136ft 0kts
21-Apr-18 12:08 33.436341 -111.995036 129 1136ft 0kts
21-Apr-18 12:09 33.436341 -111.995036 129 1136ft 0kts
21-Apr-18 12:10 33.436341 -111.995036 129 1136ft 0kts
21-Apr-18 12:11 33.436341 -111.995036 129 1136ft 0kts
21-Apr-18 12:12 33.436341 -111.995036 129 1136ft 0kts
21-Apr-18 12:13 33.436341 -111.995036 129 1136ft 0kts
21-Apr-18 12:14 33.436341 -111.995036 129 1136ft 0kts
21-Apr-18 12:15 33.436341 -111.995036 129 1136ft 0kts
21-Apr-18 12:16 33.436341 -111.995036 129 1136ft 0kts
21-Apr-18 12:17 33.436341 -111.995036 129 1136ft 0kts
21-Apr-18 12:18 33.436341 -111.995036 129 1136ft 0kts
21-Apr-18 12:19 33.436341 -111.995036 129 1136ft 0kts
21-Apr-18 12:20 33.436455 -111.995268 110 1136ft 2kts
21-Apr-18 12:21 33.436780 -111.995343 0 1136ft 3kts
21-Apr-18 12:22 33.436853 -111.995341 1 1136ft 0kts
21-Apr-18 12:23 33.436853 -111.995341 1 1136ft 0kts
21-Apr-18 12:24 33.438206 -111.995320 359 1136ft 5kts
21-Apr-18 12:25 33.439656 -111.994818 85 1136ft 18kts
21-Apr-18 12:26 33.439932 -111.992353 32 1136ft 0kts
21-Apr-18 12:27 33.440824 -111.993844 271 1136ft 34kts
21-Apr-18 12:28 33.441126 -112.045801 271 2673ft 243kts
21-Apr-18 12:29 33.442441 -112.127773 272 5752ft 256kts
21-Apr-18 12:30 33.443960 -112.214024 273 8856ft 269kts
21-Apr-18 12:31 33.445592 -112.309013 274 12000ft 303kts
21-Apr-18 12:32 33.447279 -112.413054 274 15213ft 325kts
21-Apr-18 12:33 33.448985 -112.522960 275 18429ft 337kts
21-Apr-18 12:34 33.450609 -112.634766 275 21617ft 338kts
21-Apr-18 12:35 33.452130 -112.747899 274 24826ft 345kts
21-Apr-18 12:36 33.464348 -112.860193 282 28040ft 344kts
21-Apr-18 12:37 33.485237 -112.972993 281 31237ft 352kts
21-Apr-18 12:38 33.507822 -113.095027 280 32105ft 418kts
21-Apr-18 12:39 33.534998 -113.242124 281 32112ft 469kts
21-Apr-18 12:40 33.563057 -113.395081 281 32145ft 469kts
21-Apr-18 12:41 33.591009 -113.547408 281 32134ft 469kts
21-Apr-18 12:42 33.619286 -113.699367 280 32151ft 469kts
21-Apr-18 12:43 33.647447 -113.851687 280 32168ft 469kts
21-Apr-18 12:44 33.675446 -114.004098 280 32174ft 469kts
21-Apr-18 12:45 33.703397 -114.157261 280 32169ft 469kts
21-Apr-18 12:46 33.731114 -114.310308 280 32150ft 470kts
21-Apr-18 12:47 33.758581 -114.463102 280 32156ft 469kts
21-Apr-18 12:48 33.776911 -114.611674 273 32145ft 467kts
21-Apr-18 12:49 33.785975 -114.766268 272 32179ft 467kts
21-Apr-18 12:50 33.793352 -114.896003 272 32181ft 468kts
21-Apr-18 12:51 33.802044 -115.052304 272 32099ft 471kts
21-Apr-18 12:52 33.810606 -115.210079 272 32082ft 477kts
21-Apr-18 12:53 33.819079 -115.369880 272 32114ft 479kts
21-Apr-18 12:54 33.845625 -115.525734 289 32074ft 484kts
21-Apr-18 12:55 33.894156 -115.675572 289 32138ft 484kts
21-Apr-18 12:56 33.942352 -115.825991 289 32165ft 484kts
21-Apr-18 12:57 33.990478 -115.976981 288 32212ft 484kts
21-Apr-18 12:58 34.038489 -116.128349 288 32248ft 484kts
21-Apr-18 12:59 34.086195 -116.279495 288 32284ft 484kts
21-Apr-18 13:00 34.133808 -116.431102 289 32270ft 484kts
21-Apr-18 13:01 34.181276 -116.583020 289 32250ft 484kts
21-Apr-18 13:02 34.225408 -116.724991 288 32247ft 484kts
21-Apr-18 13:03 34.272496 -116.877175 288 32193ft 486kts
21-Apr-18 13:04 34.320020 -117.031633 288 32031ft 498kts
21-Apr-18 13:05 34.367356 -117.186217 288 32093ft 501kts
21-Apr-18 13:06 34.415526 -117.344334 288 32189ft 502kts
21-Apr-18 13:07 34.463640 -117.503129 289 32285ft 502kts
21-Apr-18 13:08 34.511165 -117.660904 288 32335ft 502kts
21-Apr-18 13:09 34.558554 -117.819025 288 32336ft 503kts
21-Apr-18 13:10 34.606055 -117.978413 288 32358ft 502kts
21-Apr-18 13:11 34.610687 -118.140789 244 32267ft 492kts
21-Apr-18 13:12 34.555137 -118.293081 246 32312ft 492kts
21-Apr-18 13:13 34.503623 -118.446750 246 32311ft 493kts
21-Apr-18 13:14 34.451962 -118.600230 246 32308ft 493kts
21-Apr-18 13:15 34.400936 -118.751102 246 31744ft 491kts
21-Apr-18 13:16 34.361111 -118.906502 269 29807ft 491kts
21-Apr-18 13:17 34.389062 -119.066753 280 27779ft 486kts
21-Apr-18 13:18 34.416836 -119.226594 280 25393ft 489kts
21-Apr-18 13:19 34.443982 -119.384416 281 23071ft 460kts
21-Apr-18 13:20 34.468825 -119.530031 281 20568ft 428kts
21-Apr-18 13:21 34.491982 -119.666754 281 18085ft 408kts
21-Apr-18 13:22 34.527896 -119.791921 310 15602ft 392kts
21-Apr-18 13:23 34.598268 -119.887517 313 13724ft 368kts
21-Apr-18 13:24 34.665840 -119.976699 314 11921ft 353kts
21-Apr-18 13:25 34.734627 -120.058490 318 10122ft 342kts
21-Apr-18 13:26 34.802523 -120.136656 318 8484ft 328kts
21-Apr-18 13:27 34.866888 -120.211066 318 7081ft 313kts
21-Apr-18 13:28 34.928590 -120.282531 317 6018ft 291kts
21-Apr-18 13:29 34.984425 -120.347370 317 6117ft 274kts
21-Apr-18 13:30 35.040614 -120.412737 317 4984ft 288kts
21-Apr-18 13:31 35.102708 -120.469409 325 3126ft 266kts
21-Apr-18 13:32 35.156239 -120.513672 325 2807ft 217kts
21-Apr-18 13:33 35.193608 -120.563869 304 1930ft 173kts
21-Apr-18 13:34 35.216526 -120.604203 303 1103ft 129kts
21-Apr-18 13:35 35.236227 -120.638906 304 217ft 111kts
21-Apr-18 13:36 35.239961 -120.643791 80 216ft 0kts
21-Apr-18 13:37 35.239039 -120.641471 124 216ft 0kts
21-Apr-18 13:38 35.239039 -120.641471 124 216ft 0kts
21-Apr-18 13:39 35.239039 -120.641471 124 216ft 0kts

Navigation Log

Ident Type
Flight plan parsing failed, navigation log unavailable